createdAt,value
2023-04-08T00:00:50.300Z,15.87
2023-04-08T00:03:54.217Z,17.80
2023-04-08T00:06:58.004Z,15.00
2023-04-08T00:10:01.604Z,13.30
2023-04-08T00:13:07.099Z,14.03
2023-04-08T00:16:10.762Z,15.13
2023-04-08T00:19:14.420Z,16.13
2023-04-08T00:22:18.033Z,20.70
2023-04-08T00:25:24.093Z,16.00
2023-04-08T00:28:30.905Z,13.47
2023-04-08T00:31:34.592Z,19.23
2023-04-08T00:34:38.773Z,20.73
2023-04-08T00:37:42.888Z,27.03
2023-04-08T00:40:46.590Z,23.03
2023-04-08T00:43:51.693Z,20.53
2023-04-08T00:46:56.023Z,20.07
2023-04-08T00:49:59.815Z,19.00
2023-04-08T00:53:03.438Z,18.30
2023-04-08T00:56:07.174Z,22.57
2023-04-08T00:59:12.487Z,16.93
2023-04-08T01:02:20.811Z,17.30
2023-04-08T01:05:32.584Z,18.73
2023-04-08T01:08:39.919Z,16.80
2023-04-08T01:11:46.146Z,17.33
2023-04-08T01:14:57.765Z,16.63
2023-04-08T01:18:03.365Z,17.23
2023-04-08T01:21:09.151Z,18.90
2023-04-08T01:24:21.150Z,20.10
2023-04-08T01:27:27.314Z,18.13
2023-04-08T01:30:32.280Z,17.63
2023-04-08T01:33:37.153Z,17.27
2023-04-08T01:36:42.187Z,15.47
2023-04-08T01:39:47.213Z,18.23
2023-04-08T01:42:55.801Z,20.43
2023-04-08T01:46:00.969Z,17.07
2023-04-08T01:49:06.144Z,18.17
2023-04-08T01:52:13.071Z,18.23
2023-04-08T01:55:17.086Z,17.70
2023-04-08T01:58:24.302Z,24.00
2023-04-08T02:01:31.101Z,22.47
2023-04-08T02:04:35.731Z,24.03
2023-04-08T02:07:39.354Z,21.67
2023-04-08T02:10:42.999Z,20.73
2023-04-08T02:13:48.225Z,19.00
2023-04-08T02:16:55.014Z,21.43
2023-04-08T02:20:05.094Z,18.93
2023-04-08T02:23:15.379Z,21.47
2023-04-08T02:26:21.118Z,22.63
2023-04-08T02:29:27.747Z,24.53
2023-04-08T02:32:34.111Z,20.67
2023-04-08T02:35:38.603Z,21.53
2023-04-08T02:38:49.906Z,22.40
2023-04-08T02:41:53.936Z,20.77
2023-04-08T02:45:00.498Z,20.77
2023-04-08T02:48:04.086Z,23.40
2023-04-08T02:51:08.586Z,21.83
2023-04-08T02:54:12.197Z,22.63
2023-04-08T02:57:17.309Z,21.27
2023-04-08T03:00:22.473Z,23.47
2023-04-08T03:03:29.836Z,23.90
2023-04-08T03:06:33.679Z,23.10
2023-04-08T03:09:37.308Z,26.63
2023-04-08T03:12:40.934Z,26.17
2023-04-08T03:15:46.587Z,25.57
2023-04-08T03:18:52.086Z,25.07
2023-04-08T03:21:55.970Z,24.03
2023-04-08T03:24:59.711Z,28.33
2023-04-08T03:28:03.359Z,24.03
2023-04-08T03:31:08.655Z,23.10
2023-04-08T03:34:12.338Z,23.03
2023-04-08T03:37:15.946Z,24.97
2023-04-08T03:40:19.891Z,24.03
2023-04-08T03:43:23.445Z,22.63
2023-04-08T03:46:28.788Z,29.57
2023-04-08T03:49:32.558Z,28.13
2023-04-08T03:52:36.222Z,24.93
2023-04-08T03:55:39.922Z,28.70
2023-04-08T03:58:43.538Z,29.43
2023-04-08T04:01:48.969Z,31.37
2023-04-08T04:04:52.737Z,25.37
2023-04-08T04:07:56.478Z,27.17
2023-04-08T04:11:00.576Z,26.57
2023-04-08T04:14:04.333Z,25.47
2023-04-08T04:17:09.442Z,26.93
2023-04-08T04:20:14.048Z,30.80
2023-04-08T04:23:17.662Z,24.70
2023-04-08T04:26:22.115Z,26.43
2023-04-08T04:29:26.169Z,27.67
2023-04-08T04:32:31.417Z,32.00
2023-04-08T04:35:35.596Z,27.13
2023-04-08T04:38:39.365Z,25.33
2023-04-08T04:41:44.557Z,26.67
2023-04-08T04:44:48.211Z,27.67
2023-04-08T04:47:53.265Z,30.13
2023-04-08T04:50:57.506Z,25.43
2023-04-08T04:54:01.306Z,28.07
2023-04-08T04:57:05.050Z,31.40
2023-04-08T05:00:09.982Z,31.17
2023-04-08T05:03:15.610Z,36.90
2023-04-08T05:06:19.467Z,30.03
2023-04-08T05:09:23.352Z,29.57
2023-04-08T05:12:28.351Z,27.70
2023-04-08T05:15:32.180Z,34.40
2023-04-08T05:18:37.473Z,30.90
2023-04-08T05:21:41.374Z,29.90
2023-04-08T05:24:45.352Z,37.03
2023-04-08T05:27:49.067Z,32.10
2023-04-08T05:30:53.541Z,32.90
2023-04-08T05:33:58.913Z,32.60
2023-04-08T05:37:02.697Z,32.57
2023-04-08T05:40:07.858Z,33.00
2023-04-08T05:43:11.834Z,34.77
2023-04-08T05:46:15.788Z,31.87
2023-04-08T05:49:21.444Z,33.53
2023-04-08T05:52:25.164Z,36.57
2023-04-08T05:55:29.309Z,33.70
2023-04-08T05:58:33.139Z,33.60
2023-04-08T06:01:37.031Z,37.33
2023-04-08T06:04:42.649Z,37.00
2023-04-08T06:07:46.870Z,32.10
2023-04-08T06:10:51.727Z,36.93
2023-04-08T06:13:55.637Z,35.87
2023-04-08T06:16:59.357Z,33.40
2023-04-08T06:20:05.133Z,39.93
2023-04-08T06:23:08.875Z,35.90
2023-04-08T06:26:13.583Z,32.57
2023-04-08T06:29:17.413Z,36.97
2023-04-08T06:32:21.303Z,37.73
2023-04-08T06:35:26.561Z,39.90
2023-04-08T06:38:30.373Z,33.40
2023-04-08T06:41:34.277Z,36.10
2023-04-08T06:44:52.349Z,40.60
2023-04-08T06:47:57.385Z,34.67
2023-04-08T06:51:03.038Z,34.90
2023-04-08T06:54:06.857Z,44.20
2023-04-08T06:57:10.805Z,38.63
2023-04-08T07:00:15.487Z,36.10
2023-04-08T07:03:19.358Z,34.27
2023-04-08T07:06:24.797Z,34.90
2023-04-08T07:09:28.986Z,31.73
2023-04-08T07:12:32.789Z,31.40
2023-04-08T07:15:36.710Z,33.43
2023-04-08T07:18:41.805Z,31.07
2023-04-08T07:21:47.177Z,33.43
2023-04-08T07:24:51.033Z,30.80
2023-04-08T07:27:54.853Z,30.07
2023-04-08T07:30:58.820Z,29.07
2023-04-08T07:34:02.717Z,26.53
2023-04-08T07:37:08.031Z,31.53
2023-04-08T07:40:12.697Z,28.10
2023-04-08T07:43:16.573Z,26.10
2023-04-08T07:46:20.815Z,27.47
2023-04-08T07:49:24.714Z,27.13
2023-04-08T07:52:31.613Z,27.20
2023-04-08T07:55:35.842Z,28.20
2023-04-08T07:58:40.777Z,25.13
2023-04-08T08:01:45.086Z,26.30
2023-04-08T08:04:48.935Z,24.67
2023-04-08T08:07:54.205Z,24.87
2023-04-08T08:10:58.076Z,30.20
2023-04-08T08:14:01.977Z,24.73
2023-04-08T08:17:05.884Z,28.57
2023-04-08T08:20:10.721Z,32.13
2023-04-08T08:23:16.079Z,25.10
2023-04-08T08:26:20.003Z,26.47
2023-04-08T08:29:23.957Z,28.17
2023-04-08T08:32:27.864Z,27.07
2023-04-08T08:35:31.797Z,30.07
2023-04-08T08:38:37.166Z,27.87
2023-04-08T08:41:42.467Z,25.80
2023-04-08T08:44:46.661Z,26.93
2023-04-08T08:47:51.647Z,28.60
2023-04-08T08:50:55.564Z,24.50
2023-04-08T08:54:04.509Z,24.03
2023-04-08T08:57:18.877Z,24.50
2023-04-08T09:00:34.574Z,24.40
2023-04-08T09:03:39.135Z,27.27
2023-04-08T09:06:44.214Z,25.20
2023-04-08T09:09:53.021Z,25.90
2023-04-08T09:12:57.915Z,24.43
2023-04-08T09:16:06.635Z,21.67
2023-04-08T09:19:12.191Z,25.20
2023-04-08T09:22:16.213Z,29.30
2023-04-08T09:25:27.180Z,22.33
2023-04-08T09:28:32.038Z,25.73
2023-04-08T09:31:38.610Z,20.60
2023-04-08T09:34:42.507Z,20.87
2023-04-08T09:37:48.254Z,18.37
2023-04-08T09:40:54.945Z,20.70
2023-04-08T09:44:00.985Z,19.23
2023-04-08T09:47:12.098Z,20.53
2023-04-08T09:50:18.434Z,18.53
2023-04-08T09:53:27.757Z,19.83
2023-04-08T09:56:42.485Z,18.03
2023-04-08T09:59:56.916Z,17.63
2023-04-08T10:03:12.108Z,16.83
2023-04-08T10:06:17.172Z,16.17
2023-04-08T10:09:21.588Z,20.13
2023-04-08T10:12:26.741Z,18.10
2023-04-08T10:15:31.589Z,20.40
2023-04-08T10:18:35.648Z,17.20
2023-04-08T10:21:43.538Z,18.67
2023-04-08T10:25:33.464Z,20.13
2023-04-08T10:28:38.753Z,21.43
2023-04-08T10:31:42.885Z,18.90
2023-04-08T10:34:55.116Z,20.30
2023-04-08T10:37:59.518Z,25.50
2023-04-08T10:41:03.349Z,21.57
2023-04-08T10:44:17.712Z,19.97
2023-04-08T10:47:27.834Z,18.73
2023-04-08T10:50:32.715Z,33.53
2023-04-08T10:53:38.593Z,31.20
2023-04-08T10:56:49.870Z,29.33
2023-04-08T10:59:55.324Z,19.50
2023-04-08T11:03:02.787Z,20.33
2023-04-08T11:06:07.802Z,20.80
2023-04-08T11:09:12.369Z,20.20
2023-04-08T11:12:19.088Z,18.73
2023-04-08T11:15:25.789Z,21.33
2023-04-08T11:18:30.120Z,19.50
2023-04-08T11:21:36.802Z,23.93
2023-04-08T11:24:41.357Z,18.13
2023-04-08T11:27:45.407Z,18.97
2023-04-08T11:30:51.129Z,20.87
2023-04-08T11:33:57.055Z,18.57
2023-04-08T11:37:00.848Z,18.77
2023-04-08T11:40:07.998Z,20.17
2023-04-08T11:43:12.571Z,19.67
2023-04-08T11:46:18.020Z,20.33
2023-04-08T11:49:21.843Z,17.70
2023-04-08T11:52:41.852Z,17.93
2023-04-08T11:55:45.796Z,16.63
2023-04-08T11:58:50.176Z,17.63
2023-04-08T12:01:55.517Z,17.50
2023-04-08T12:04:59.357Z,14.77
2023-04-08T12:08:03.702Z,16.20
2023-04-08T12:11:19.202Z,15.20
2023-04-08T12:14:28.194Z,17.80
2023-04-08T12:17:33.897Z,18.60
2023-04-08T12:20:37.771Z,18.37
2023-04-08T12:23:41.846Z,18.10
2023-04-08T12:26:45.730Z,13.80
2023-04-08T12:29:50.112Z,15.57
2023-04-08T12:32:55.681Z,15.50
2023-04-08T12:35:59.816Z,15.83
2023-04-08T12:39:03.705Z,14.33
2023-04-08T12:42:07.626Z,17.47
2023-04-08T12:45:11.889Z,14.30
2023-04-08T12:48:17.267Z,18.10
2023-04-08T12:51:21.232Z,15.10
2023-04-08T12:54:25.174Z,12.70
2023-04-08T12:57:29.026Z,13.37
2023-04-08T13:00:32.928Z,13.27
2023-04-08T13:03:39.663Z,15.47
2023-04-08T13:06:43.526Z,14.97
2023-04-08T13:09:47.828Z,15.90
2023-04-08T13:12:51.685Z,12.47
2023-04-08T13:15:55.563Z,11.33
2023-04-08T13:19:00.781Z,11.67
2023-04-08T13:22:04.565Z,14.70
2023-04-08T13:25:08.986Z,12.03
2023-04-08T13:28:12.896Z,12.33
2023-04-08T13:31:16.848Z,16.00
2023-04-08T13:34:22.304Z,13.30
2023-04-08T13:37:26.148Z,10.70
2023-04-08T13:40:30.413Z,13.00
2023-04-08T13:43:34.282Z,13.27
2023-04-08T13:46:38.075Z,9.30
2023-04-08T13:49:43.414Z,9.50
2023-04-08T13:52:47.597Z,10.50
2023-04-08T13:55:55.266Z,8.60
2023-04-08T13:58:59.467Z,10.63
2023-04-08T14:02:04.046Z,14.57
2023-04-08T14:05:10.639Z,8.70
2023-04-08T14:08:14.681Z,9.87
2023-04-08T14:11:18.467Z,8.23
2023-04-08T14:14:22.338Z,6.77
2023-04-08T14:17:26.252Z,6.90
2023-04-08T14:20:32.187Z,9.80
2023-04-08T14:23:36.132Z,5.13
2023-04-08T14:26:39.961Z,6.97
2023-04-08T14:29:43.775Z,6.57
2023-04-08T14:32:47.611Z,6.40
2023-04-08T14:35:54.444Z,4.83
2023-04-08T14:38:58.338Z,5.53
2023-04-08T14:42:02.408Z,6.77
2023-04-08T14:45:06.838Z,6.57
2023-04-08T14:48:10.672Z,5.90
2023-04-08T14:51:16.040Z,7.27
2023-04-08T14:54:20.360Z,7.03
2023-04-08T14:57:24.142Z,8.03
2023-04-08T15:00:28.198Z,7.83
2023-04-08T15:03:32.047Z,5.40
2023-04-08T15:06:39.270Z,5.47
2023-04-08T15:09:43.295Z,5.70
2023-04-08T15:12:47.050Z,7.40
2023-04-08T15:15:50.914Z,6.23
2023-04-08T15:18:55.385Z,6.10
2023-04-08T15:22:00.690Z,6.03
2023-04-08T15:25:05.694Z,6.03
2023-04-08T15:28:10.082Z,5.57
2023-04-08T15:31:14.158Z,5.70
2023-04-08T15:34:18.096Z,5.27
2023-04-08T15:37:24.080Z,5.43
2023-04-08T15:40:28.106Z,14.10
2023-04-08T15:43:31.966Z,5.90
2023-04-08T15:46:37.467Z,6.57
2023-04-08T15:49:41.796Z,6.27
2023-04-08T15:52:47.193Z,6.83
2023-04-08T15:55:51.124Z,7.20
2023-04-08T15:58:55.043Z,8.83
2023-04-08T16:01:59.001Z,7.40
2023-04-08T16:05:03.132Z,6.90
2023-04-08T16:08:08.547Z,6.60
2023-04-08T16:11:12.532Z,8.33
2023-04-08T16:14:16.706Z,8.70
2023-04-08T16:17:20.491Z,8.17
2023-04-08T16:20:24.340Z,8.07
2023-04-08T16:23:30.022Z,7.90
2023-04-08T16:26:34.512Z,10.83
2023-04-08T16:29:38.537Z,10.90
2023-04-08T16:32:42.422Z,13.80
2023-04-08T16:35:46.769Z,12.97
2023-04-08T16:38:53.930Z,8.87
2023-04-08T16:41:57.775Z,11.00
2023-04-08T16:45:01.816Z,9.63
2023-04-08T16:48:05.964Z,14.30
2023-04-08T16:51:10.007Z,14.07
2023-04-08T16:54:15.386Z,14.17
2023-04-08T16:57:19.396Z,12.83
2023-04-08T17:00:23.517Z,11.30
2023-04-08T17:03:27.582Z,14.63
2023-04-08T17:06:31.595Z,14.43
2023-04-08T17:09:37.380Z,14.20
2023-04-08T17:12:41.945Z,12.63
2023-04-08T17:15:45.751Z,10.70
2023-04-08T17:18:49.756Z,11.13
2023-04-08T17:21:53.772Z,10.23
2023-04-08T17:24:59.142Z,11.90
2023-04-08T17:28:03.052Z,11.23
2023-04-08T17:31:06.970Z,11.20
2023-04-08T17:34:10.863Z,14.80
2023-04-08T17:37:14.761Z,12.83
2023-04-08T17:40:20.439Z,12.10
2023-04-08T17:43:24.260Z,17.27
2023-04-08T17:46:28.247Z,21.53
2023-04-08T17:49:32.183Z,20.63
2023-04-08T17:52:36.068Z,19.57
2023-04-08T17:55:41.494Z,15.83
2023-04-08T17:58:48.474Z,17.17
2023-04-08T18:01:52.330Z,13.67
2023-04-08T18:04:56.336Z,14.07
2023-04-08T18:08:00.135Z,13.43
2023-04-08T18:11:07.793Z,14.37
2023-04-08T18:14:12.837Z,16.40
2023-04-08T18:17:16.756Z,10.20
2023-04-08T18:20:20.861Z,10.10
2023-04-08T18:23:24.814Z,11.77
2023-04-08T18:26:30.023Z,13.13
2023-04-08T18:29:34.008Z,11.47
2023-04-08T18:32:37.799Z,12.67
2023-04-08T18:35:41.968Z,12.80
2023-04-08T18:38:46.143Z,14.73
2023-04-08T18:41:51.278Z,13.80
2023-04-08T18:44:55.180Z,14.67
2023-04-08T18:47:59.250Z,11.70
2023-04-08T18:51:03.080Z,12.97
2023-04-08T18:54:06.948Z,10.03
2023-04-08T18:57:12.439Z,13.60
2023-04-08T19:00:16.722Z,11.63
2023-04-08T19:03:20.993Z,12.00
2023-04-08T19:06:24.919Z,15.33
2023-04-08T19:09:28.775Z,24.03
2023-04-08T19:12:34.176Z,31.07
2023-04-08T19:15:38.043Z,38.53
2023-04-08T19:18:41.898Z,32.80
2023-04-08T19:21:45.668Z,28.87
2023-04-08T19:24:49.581Z,34.87
2023-04-08T19:27:54.825Z,39.97
2023-04-08T19:30:58.776Z,38.93
2023-04-08T19:34:02.642Z,31.17
2023-04-08T19:37:06.789Z,35.03
2023-04-08T19:40:11.674Z,32.57
2023-04-08T19:43:17.932Z,27.40
2023-04-08T19:46:21.819Z,25.03
2023-04-08T19:49:25.890Z,26.90
2023-04-08T19:52:29.646Z,18.00
2023-04-08T19:55:33.644Z,17.13
2023-04-08T19:58:39.007Z,12.30
2023-04-08T20:01:42.966Z,9.90
2023-04-08T20:04:47.049Z,11.87
2023-04-08T20:07:51.066Z,9.60
2023-04-08T20:10:54.882Z,9.70
2023-04-08T20:14:00.508Z,9.93
2023-04-08T20:17:04.726Z,9.67
2023-04-08T20:20:09.842Z,8.67
2023-04-08T20:23:13.922Z,10.77
2023-04-08T20:26:17.862Z,12.43
2023-04-08T20:29:23.244Z,8.13
2023-04-08T20:32:28.150Z,10.63
2023-04-08T20:35:32.004Z,8.67
2023-04-08T20:38:37.143Z,8.67
2023-04-08T20:41:40.925Z,9.47
2023-04-08T20:44:46.274Z,10.73
2023-04-08T20:47:50.151Z,10.67
2023-04-08T20:50:54.009Z,11.30
2023-04-08T20:53:57.776Z,9.80
2023-04-08T20:57:01.619Z,10.80
2023-04-08T21:00:07.858Z,8.20
2023-04-08T21:03:11.798Z,10.60
2023-04-08T21:06:18.937Z,9.63
2023-04-08T21:09:22.724Z,9.67
2023-04-08T21:12:26.506Z,8.50
2023-04-08T21:15:32.019Z,8.83
2023-04-08T21:18:36.342Z,10.40
2023-04-08T21:21:40.229Z,8.57
2023-04-08T21:24:44.096Z,9.27
2023-04-08T21:27:47.969Z,9.70
2023-04-08T21:30:54.425Z,10.13
2023-04-08T21:33:58.304Z,12.73
2023-04-08T21:37:02.311Z,13.97
2023-04-08T21:40:06.879Z,6.53
2023-04-08T21:43:10.667Z,9.13
2023-04-08T21:46:16.065Z,11.23
2023-04-08T21:49:19.973Z,10.40
2023-04-08T21:52:23.880Z,8.93
2023-04-08T21:55:37.796Z,8.87
2023-04-08T21:58:41.574Z,9.67
2023-04-08T22:01:46.858Z,11.03
2023-04-08T22:04:50.914Z,10.10
2023-04-08T22:07:55.337Z,9.17
2023-04-08T22:10:59.279Z,12.60
2023-04-08T22:14:03.085Z,9.40
2023-04-08T22:17:08.517Z,9.07
2023-04-08T22:20:13.351Z,12.67
2023-04-08T22:23:17.196Z,11.00
2023-04-08T22:26:21.581Z,10.50
2023-04-08T22:29:25.389Z,10.50
2023-04-08T22:32:30.726Z,11.77
2023-04-08T22:35:34.679Z,13.63
2023-04-08T22:38:38.511Z,11.77
2023-04-08T22:41:42.286Z,12.30
2023-04-08T22:44:46.233Z,9.40
2023-04-08T22:47:51.458Z,12.07
2023-04-08T22:50:55.189Z,12.33
2023-04-08T22:53:59.020Z,10.20
2023-04-08T22:57:03.331Z,11.20
2023-04-08T23:00:08.308Z,10.00
2023-04-08T23:03:13.449Z,12.87
2023-04-08T23:06:17.379Z,12.93
2023-04-08T23:09:23.936Z,10.93
2023-04-08T23:12:27.523Z,13.93
2023-04-08T23:15:31.328Z,15.70
2023-04-08T23:18:36.608Z,10.53
2023-04-08T23:21:40.654Z,11.30
2023-04-08T23:24:44.853Z,11.33
2023-04-08T23:27:48.496Z,12.57
2023-04-08T23:30:52.232Z,13.07
2023-04-08T23:33:57.389Z,11.37
2023-04-08T23:37:01.141Z,9.57
2023-04-08T23:40:04.938Z,12.07
2023-04-08T23:43:08.674Z,10.57
2023-04-08T23:46:12.295Z,8.97
2023-04-08T23:49:17.528Z,11.13
2023-04-08T23:52:21.178Z,10.67
2023-04-08T23:55:24.864Z,12.40
2023-04-08T23:58:28.562Z,12.97
